Date,TemperatureHighF,TemperatureAvgF,TemperatureLowF,DewpointHighF,DewpointAvgF,DewpointLowF,HumidityHigh,HumidityAvg,HumidityLow,PressureMaxIn,PressureMinIn,WindSpeedMaxMPH,WindSpeedAvgMPH,GustSpeedMaxMPH,PrecipitationSumIn
2013-2-1,32.9,27.7,20.5,26.5,14.5,6.6,84,58,43,30.12,29.56,12,2,12,0.00
2013-2-2,39.2,26.5,15.3,23.7,14.7,5.2,80,61,48,30.12,29.75,9,1,9,0.00
2013-2-3,39.8,30.3,22.3,31.2,24.9,18.5,88,80,69,29.75,29.58,7,1,7,0.02
2013-2-4,39.4,31.4,23.9,26.9,19.6,12.8,75,62,51,29.85,29.64,10,2,10,0.03
2013-2-5,42.5,35.3,30.2,33.1,28.1,22.8,84,75,67,29.69,29.59,3,0,3,0.02
2013-2-6,47.5,36.9,26.5,33.9,27.6,19.1,89,70,51,30.11,29.67,9,1,9,0.00
2013-2-7,42.5,34.0,24.1,31.2,26.3,18.7,86,74,61,30.20,29.95,6,1,6,0.00
2013-2-8,43.6,38.5,34.2,41.0,34.2,25.9,92,85,66,29.95,29.44,11,2,11,0.44
2013-2-9,41.8,34.1,29.5,26.3,20.5,17.0,67,57,46,30.12,29.61,12,3,12,0.00
2013-2-10,48.6,33.2,19.4,29.9,21.2,13.5,82,63,40,30.24,30.00,7,1,7,0.00
2013-2-11,53.6,45.7,37.1,50.5,42.0,29.9,91,87,75,30.00,29.43,11,2,11,0.33
2013-2-12,57.6,46.0,36.9,45.8,32.8,28.2,85,61,40,29.73,29.53,9,2,9,0.00
2013-2-13,53.5,38.8,30.6,39.3,31.1,24.8,89,75,56,29.70,29.40,5,0,5,0.22
2013-2-14,53.8,38.8,31.3,42.6,32.7,28.1,91,80,60,29.77,29.49,0,0,0,0.02
2013-2-15,61.2,43.6,32.4,47.6,36.4,29.3,90,77,57,29.78,29.63,0,0,0,0.09
2013-2-16,39.8,36.6,33.5,37.1,32.1,23.9,91,84,69,29.76,29.54,0,0,0,0.16
2013-2-17,35.6,29.9,25.2,24.2,15.9,10.0,70,56,42,30.00,29.54,0,0,0,0.00
2013-2-18,46.4,31.3,20.5,39.3,16.4,7.7,77,55,35,30.19,29.98,0,0,0,0.02
2013-2-19,46.1,40.1,32.6,42.3,33.8,25.2,87,78,65,29.98,29.53,0,0,0,0.09
2013-2-20,40.0,34.4,26.1,28.4,18.3,11.0,67,52,43,29.96,29.64,0,0,0,0.00
2013-2-21,41.2,31.6,24.7,20.1,16.0,11.7,62,53,42,30.13,29.92,0,0,0,0.00
2013-2-22,39.1,33.6,29.7,29.9,24.1,17.3,85,68,58,30.20,30.03,0,0,0,0.08
2013-2-23,46.6,40.2,34.0,44.5,37.7,29.9,93,91,85,30.03,29.60,0,0,0,0.14
2013-2-24,53.3,43.9,33.5,42.6,33.8,21.8,93,70,42,29.91,29.59,0,0,0,0.01
2013-2-25,53.6,37.3,28.6,35.9,25.1,20.3,79,62,48,30.03,29.90,0,0,0,0.00
2013-2-26,46.8,37.8,27.2,45.0,33.6,22.6,94,85,74,30.04,29.41,0,0,0,0.86
2013-2-27,58.5,49.0,41.2,45.7,41.8,33.4,94,77,55,29.50,29.29,0,0,0,0.03
2013-2-28,51.5,44.5,40.1,38.0,33.0,28.1,85,65,42,29.54,29.43,0,0,0,0.03